Time;durP1;ratioP1;P1;durP2;ratioP2;P2;SDS_P1;SDS_P2;PMS_P1;PMS_P2;Temp;Humidity;BMP_temperature;BMP_pressure;BME280_temperature;BME280_humidity;BME280_pressure;Samples;Min_cycle;Max_cycle;Signal;HPM_P1;HPM_P2
2021/07/23 00:00:28;;;;;;;5.60;3.80;;;;;;;;;;4679741;30;20061;-81
2021/07/23 00:02:54;;;;;;;5.95;4.05;;;;;;;;;;4673065;30;20488;-81
2021/07/23 00:05:19;;;;;;;5.93;4.10;;;;;;;;;;4676771;30;20041;-81
2021/07/23 00:07:45;;;;;;;5.25;3.90;;;;;;;;;;4674184;30;20128;-81
2021/07/23 00:10:10;;;;;;;5.72;4.18;;;;;;;;;;4684092;30;20061;-81
2021/07/23 00:12:36;;;;;;;6.18;4.25;;;;;;;;;;4693765;30;20520;-81
2021/07/23 00:15:02;;;;;;;8.20;4.00;;;;;;;;;;4678121;30;20078;-81
2021/07/23 00:17:27;;;;;;;5.72;4.32;;;;;;;;;;4673926;30;20108;-81
2021/07/23 00:19:53;;;;;;;8.45;4.00;;;;;;;;;;4680177;30;20038;-80
2021/07/23 00:22:18;;;;;;;5.43;3.90;;;;;;;;;;4677854;30;20112;-81
2021/07/23 00:24:43;;;;;;;6.13;3.90;;;;;;;;;;4677001;30;20048;-81
2021/07/23 00:27:09;;;;;;;5.72;3.92;;;;;;;;;;4698277;30;20480;-81
2021/07/23 00:29:34;;;;;;;6.18;4.13;;;;;;;;;;4688803;30;20050;-81
2021/07/23 00:32:00;;;;;;;5.97;3.75;;;;;;;;;;4670025;30;20457;-81
2021/07/23 00:34:25;;;;;;;5.75;3.75;;;;;;;;;;4693847;30;20026;-80
2021/07/23 00:36:51;;;;;;;6.55;4.43;;;;;;;;;;4656490;30;20041;-80
2021/07/23 00:39:16;;;;;;;5.40;3.58;;;;;;;;;;4666844;30;20045;-80
2021/07/23 00:41:41;;;;;;;5.32;3.60;;;;;;;;;;4675739;30;20128;-81
2021/07/23 00:44:07;;;;;;;5.65;3.97;;;;;;;;;;4668312;30;20041;-81
2021/07/23 00:46:32;;;;;;;5.90;4.00;;;;;;;;;;4677984;30;20042;-81
2021/07/23 00:48:58;;;;;;;6.10;3.85;;;;;;;;;;4690024;30;20508;-80
2021/07/23 00:51:24;;;;;;;6.75;4.30;;;;;;;;;;4689527;30;20396;-81
2021/07/23 00:53:50;;;;;;;5.15;3.83;;;;;;;;;;4678114;30;20030;-80
2021/07/23 00:56:16;;;;;;;5.75;3.70;;;;;;;;;;4693257;30;20041;-80
2021/07/23 00:58:42;;;;;;;6.35;4.13;;;;;;;;;;4680796;30;20034;-81
2021/07/23 01:01:08;;;;;;;6.53;4.03;;;;;;;;;;4692259;30;20038;-81
2021/07/23 01:03:36;;;;;;;5.63;4.05;;;;;;;;;;4682693;30;20093;-80
2021/07/23 01:06:01;;;;;;;5.60;3.60;;;;;;;;;;4693226;30;20041;-81
2021/07/23 01:08:27;;;;;;;6.88;3.83;;;;;;;;;;4676996;30;20046;-81
2021/07/23 01:10:53;;;;;;;5.65;3.40;;;;;;;;;;4679389;30;20053;-81
2021/07/23 01:13:18;;;;;;;7.90;4.32;;;;;;;;;;4681584;30;20042;-81
2021/07/23 01:15:44;;;;;;;6.78;4.05;;;;;;;;;;4678928;30;20041;-81
2021/07/23 01:18:09;;;;;;;6.63;3.72;;;;;;;;;;4674212;30;20041;-80
2021/07/23 01:20:35;;;;;;;5.68;3.70;;;;;;;;;;4667461;30;20076;-81
2021/07/23 01:23:01;;;;;;;7.85;4.20;;;;;;;;;;4673376;30;20204;-81
2021/07/23 01:25:27;;;;;;;5.28;3.67;;;;;;;;;;4670230;30;20077;-81
2021/07/23 01:27:54;;;;;;;5.70;3.70;;;;;;;;;;4677894;30;20137;-81
2021/07/23 01:30:25;;;;;;;6.18;3.70;;;;;;;;;;4671863;30;20100;-81
2021/07/23 01:32:51;;;;;;;5.63;4.10;;;;;;;;;;4673346;30;20433;-81
2021/07/23 01:35:18;;;;;;;5.25;3.75;;;;;;;;;;4665907;30;20049;-81
2021/07/23 01:37:46;;;;;;;6.80;4.25;;;;;;;;;;4649316;30;20057;-80
2021/07/23 01:40:13;;;;;;;6.72;4.60;;;;;;;;;;4676322;30;20033;-80
2021/07/23 01:42:40;;;;;;;6.10;3.95;;;;;;;;;;4665562;30;20041;-80
2021/07/23 01:45:06;;;;;;;7.20;4.35;;;;;;;;;;4693574;30;20141;-81
2021/07/23 01:47:32;;;;;;;6.80;4.30;;;;;;;;;;4671857;30;20069;-81
2021/07/23 01:49:58;;;;;;;7.18;4.30;;;;;;;;;;4677531;30;20139;-80
2021/07/23 01:52:23;;;;;;;6.13;4.10;;;;;;;;;;4670246;30;20495;-81
2021/07/23 01:54:49;;;;;;;6.15;3.83;;;;;;;;;;4677692;30;20116;-80
2021/07/23 01:57:15;;;;;;;9.50;4.40;;;;;;;;;;4667594;30;20045;-80
2021/07/23 01:59:40;;;;;;;4.72;3.75;;;;;;;;;;4675734;30;20113;-80
2021/07/23 02:02:06;;;;;;;6.38;4.15;;;;;;;;;;4664855;30;20049;-80
2021/07/23 02:04:32;;;;;;;6.00;4.07;;;;;;;;;;4667034;30;20038;-80
2021/07/23 02:06:58;;;;;;;5.65;3.80;;;;;;;;;;4676535;30;20120;-80
2021/07/23 02:09:24;;;;;;;6.43;4.47;;;;;;;;;;4683521;30;20124;-80
2021/07/23 02:11:49;;;;;;;6.82;4.38;;;;;;;;;;4673760;30;20038;-80
2021/07/23 02:14:15;;;;;;;5.90;4.03;;;;;;;;;;4667379;30;20030;-80
2021/07/23 02:16:41;;;;;;;5.68;3.70;;;;;;;;;;4689365;30;20388;-80
2021/07/23 02:19:06;;;;;;;6.47;4.35;;;;;;;;;;4691318;30;20038;-80
2021/07/23 02:21:34;;;;;;;6.82;4.07;;;;;;;;;;4689930;30;20053;-80
2021/07/23 02:23:59;;;;;;;5.93;3.80;;;;;;;;;;4675816;30;20450;-80
2021/07/23 02:26:25;;;;;;;4.93;3.72;;;;;;;;;;4694918;30;20048;-80
2021/07/23 02:28:50;;;;;;;5.97;4.28;;;;;;;;;;4670008;30;20096;-80
2021/07/23 02:31:16;;;;;;;6.30;4.07;;;;;;;;;;4689880;30;20770;-80
2021/07/23 02:33:42;;;;;;;6.30;4.50;;;;;;;;;;4678410;30;20076;-80
2021/07/23 02:36:08;;;;;;;7.70;4.28;;;;;;;;;;4673253;30;20041;-80
2021/07/23 02:38:33;;;;;;;6.85;4.50;;;;;;;;;;4682641;30;20049;-80
2021/07/23 02:40:59;;;;;;;7.13;4.85;;;;;;;;;;4675987;30;21502;-80
2021/07/23 02:43:24;;;;;;;5.65;4.30;;;;;;;;;;4664780;30;20132;-80
2021/07/23 02:45:50;;;;;;;5.18;3.97;;;;;;;;;;4673571;30;20042;-80
2021/07/23 02:48:16;;;;;;;5.43;3.97;;;;;;;;;;4678330;30;20251;-80
2021/07/23 02:50:41;;;;;;;6.15;4.20;;;;;;;;;;4676796;30;20045;-80
2021/07/23 02:53:07;;;;;;;5.50;4.10;;;;;;;;;;4674765;30;20030;-80
2021/07/23 02:55:33;;;;;;;5.93;4.50;;;;;;;;;;4665076;30;20037;-80
2021/07/23 02:57:59;;;;;;;5.90;4.30;;;;;;;;;;4666638;30;20049;-80
2021/07/23 03:00:25;;;;;;;6.13;4.85;;;;;;;;;;4676910;30;20037;-80
2021/07/23 03:02:50;;;;;;;7.18;4.88;;;;;;;;;;4665710;30;20506;-80
2021/07/23 03:05:16;;;;;;;8.45;5.10;;;;;;;;;;4679129;30;20038;-80
2021/07/23 03:07:42;;;;;;;5.82;4.68;;;;;;;;;;4676740;30;20446;-80
2021/07/23 03:10:08;;;;;;;6.85;4.68;;;;;;;;;;4668268;30;20033;-80
2021/07/23 03:12:34;;;;;;;5.60;4.18;;;;;;;;;;4688433;30;20037;-80
2021/07/23 03:14:59;;;;;;;7.35;5.32;;;;;;;;;;4668733;30;20041;-80
2021/07/23 03:17:25;;;;;;;7.38;4.88;;;;;;;;;;4667380;30;20050;-80
2021/07/23 03:19:50;;;;;;;8.00;4.80;;;;;;;;;;4665941;30;20128;-80
2021/07/23 03:22:16;;;;;;;8.20;5.22;;;;;;;;;;4663099;30;20515;-80
2021/07/23 03:24:41;;;;;;;7.20;4.95;;;;;;;;;;4676755;30;20056;-80
2021/07/23 03:27:07;;;;;;;7.38;5.25;;;;;;;;;;4688667;30;20041;-80
2021/07/23 03:29:32;;;;;;;7.68;4.82;;;;;;;;;;4671925;30;20034;-80
2021/07/23 03:31:57;;;;;;;6.78;4.88;;;;;;;;;;4675411;30;20064;-80
2021/07/23 03:34:23;;;;;;;6.30;4.90;;;;;;;;;;4671403;30;20029;-80
2021/07/23 03:36:48;;;;;;;7.25;5.35;;;;;;;;;;4671138;30;20046;-80
2021/07/23 03:39:14;;;;;;;8.00;5.35;;;;;;;;;;4676267;30;20033;-80
2021/07/23 03:41:39;;;;;;;8.77;5.18;;;;;;;;;;4661649;30;20393;-80
2021/07/23 03:44:04;;;;;;;8.32;5.00;;;;;;;;;;4667703;30;20030;-80
2021/07/23 03:46:30;;;;;;;8.48;5.18;;;;;;;;;;4673425;30;20117;-80
2021/07/23 03:48:56;;;;;;;10.38;5.75;;;;;;;;;;4663983;30;20054;-80
2021/07/23 03:51:22;;;;;;;8.93;5.47;;;;;;;;;;4689080;30;20160;-80
2021/07/23 03:53:47;;;;;;;9.48;5.60;;;;;;;;;;4663277;30;20116;-80
2021/07/23 03:56:13;;;;;;;7.03;5.20;;;;;;;;;;4670519;30;20570;-80
2021/07/23 03:58:40;;;;;;;8.80;5.88;;;;;;;;;;4677823;30;20061;-80
2021/07/23 04:01:06;;;;;;;6.97;5.45;;;;;;;;;;4672649;30;20140;-80
2021/07/23 04:03:33;;;;;;;8.68;6.03;;;;;;;;;;4671518;30;20107;-80
2021/07/23 04:05:59;;;;;;;9.02;5.75;;;;;;;;;;4678892;30;20042;-80
2021/07/23 04:08:25;;;;;;;8.90;5.38;;;;;;;;;;4667002;30;20484;-80
2021/07/23 04:10:50;;;;;;;7.88;5.57;;;;;;;;;;4660879;30;20045;-80
2021/07/23 04:13:16;;;;;;;8.43;5.43;;;;;;;;;;4668150;30;20065;-80
2021/07/23 04:15:41;;;;;;;8.38;5.40;;;;;;;;;;4668607;30;20053;-80
2021/07/23 04:18:06;;;;;;;10.73;5.25;;;;;;;;;;4668595;30;20061;-80
2021/07/23 04:20:32;;;;;;;6.85;5.05;;;;;;;;;;4676953;30;20043;-80
2021/07/23 04:22:57;;;;;;;7.07;5.18;;;;;;;;;;4652027;30;20050;-80
2021/07/23 04:25:23;;;;;;;6.85;5.45;;;;;;;;;;4668965;30;20474;-80
2021/07/23 04:27:48;;;;;;;8.00;5.15;;;;;;;;;;4679606;30;20049;-80
2021/07/23 04:30:16;;;;;;;9.27;5.63;;;;;;;;;;4678891;30;20052;-80
2021/07/23 04:32:41;;;;;;;9.25;6.07;;;;;;;;;;4664770;30;20500;-80
2021/07/23 04:35:07;;;;;;;9.50;6.60;;;;;;;;;;4668231;30;20040;-80
2021/07/23 04:37:33;;;;;;;9.63;6.00;;;;;;;;;;4674551;30;20038;-80
2021/07/23 04:39:58;;;;;;;8.60;6.70;;;;;;;;;;4667312;30;20057;-80
2021/07/23 04:42:24;;;;;;;9.90;6.65;;;;;;;;;;4680087;30;20087;-81
2021/07/23 04:44:49;;;;;;;9.20;6.07;;;;;;;;;;4670411;30;20392;-80
2021/07/23 04:47:14;;;;;;;10.30;6.60;;;;;;;;;;4665727;30;20101;-80
2021/07/23 04:49:40;;;;;;;10.38;6.82;;;;;;;;;;4669746;30;20128;-80
2021/07/23 04:52:05;;;;;;;10.65;7.07;;;;;;;;;;4672043;30;20033;-80
2021/07/23 04:54:31;;;;;;;10.68;7.05;;;;;;;;;;4654537;30;20052;-80
2021/07/23 04:56:56;;;;;;;9.80;7.28;;;;;;;;;;4676913;30;20037;-80
2021/07/23 04:59:22;;;;;;;9.95;7.35;;;;;;;;;;4692492;30;20923;-80
2021/07/23 05:01:47;;;;;;;11.55;8.18;;;;;;;;;;4674937;30;20038;-80
2021/07/23 05:04:12;;;;;;;9.82;7.88;;;;;;;;;;4670647;30;20039;-80
2021/07/23 05:06:38;;;;;;;10.73;7.63;;;;;;;;;;4668786;30;20112;-80
2021/07/23 05:09:05;;;;;;;11.32;7.63;;;;;;;;;;4681238;30;20495;-80
2021/07/23 05:11:30;;;;;;;12.57;7.50;;;;;;;;;;4695065;30;20137;-80
2021/07/23 05:13:56;;;;;;;10.52;7.43;;;;;;;;;;4693435;30;20529;-80
2021/07/23 05:16:21;;;;;;;10.43;7.13;;;;;;;;;;4669305;30;20128;-80
2021/07/23 05:18:47;;;;;;;10.55;6.97;;;;;;;;;;4663821;30;20033;-80
2021/07/23 05:21:13;;;;;;;10.18;6.75;;;;;;;;;;4679827;30;20488;-80
2021/07/23 05:23:40;;;;;;;10.02;7.07;;;;;;;;;;4673881;30;20050;-80
2021/07/23 05:26:06;;;;;;;9.98;7.78;;;;;;;;;;4674706;30;20391;-80
2021/07/23 05:28:32;;;;;;;10.90;7.60;;;;;;;;;;4687813;30;20038;-80
2021/07/23 05:30:59;;;;;;;10.80;7.95;;;;;;;;;;4686776;30;20060;-80
2021/07/23 05:33:24;;;;;;;12.00;8.50;;;;;;;;;;4688967;30;20357;-80
2021/07/23 05:35:50;;;;;;;10.23;7.45;;;;;;;;;;4673205;30;20038;-80
2021/07/23 05:38:15;;;;;;;10.27;7.03;;;;;;;;;;4669785;30;20099;-80
2021/07/23 05:40:42;;;;;;;14.75;8.23;;;;;;;;;;4674939;30;20053;-80
2021/07/23 05:43:08;;;;;;;9.43;7.70;;;;;;;;;;4667043;30;20045;-80
2021/07/23 05:45:37;;;;;;;11.63;7.70;;;;;;;;;;4676449;30;20053;-80
2021/07/23 05:48:03;;;;;;;9.30;6.35;;;;;;;;;;4690087;30;20126;-80
2021/07/23 05:50:28;;;;;;;9.68;7.53;;;;;;;;;;4651539;30;20502;-80
2021/07/23 05:52:55;;;;;;;9.65;7.63;;;;;;;;;;4686901;30;20034;-80
2021/07/23 05:55:21;;;;;;;9.65;6.70;;;;;;;;;;4674386;30;20522;-80
2021/07/23 05:57:47;;;;;;;9.45;6.75;;;;;;;;;;4683476;30;20044;-80
2021/07/23 06:00:13;;;;;;;11.18;7.65;;;;;;;;;;4667522;30;20042;-80
2021/07/23 06:02:38;;;;;;;11.55;7.00;;;;;;;;;;4651833;30;20077;-80
2021/07/23 06:05:04;;;;;;;9.88;7.35;;;;;;;;;;4667857;30;20136;-80
2021/07/23 06:07:30;;;;;;;9.15;6.18;;;;;;;;;;4666669;30;20042;-80
2021/07/23 06:09:55;;;;;;;8.27;6.45;;;;;;;;;;4688127;30;20049;-80
2021/07/23 06:12:20;;;;;;;9.20;5.75;;;;;;;;;;4673147;30;20061;-80
2021/07/23 06:14:46;;;;;;;8.93;5.63;;;;;;;;;;4691356;30;20058;-80
2021/07/23 06:17:11;;;;;;;8.65;6.10;;;;;;;;;;4691900;30;20496;-80
2021/07/23 06:19:38;;;;;;;8.52;6.40;;;;;;;;;;4663940;30;20125;-80
2021/07/23 06:22:05;;;;;;;7.90;4.72;;;;;;;;;;4686262;30;20067;-80
2021/07/23 06:24:31;;;;;;;7.38;5.20;;;;;;;;;;4676488;30;20151;-80
2021/07/23 06:26:56;;;;;;;6.43;5.20;;;;;;;;;;4664853;30;20065;-80
2021/07/23 06:29:22;;;;;;;7.80;5.50;;;;;;;;;;4670920;30;20042;-80
2021/07/23 06:31:48;;;;;;;7.65;5.90;;;;;;;;;;4670998;30;20037;-80
2021/07/23 06:34:14;;;;;;;7.47;5.38;;;;;;;;;;4674101;30;20125;-80
2021/07/23 06:36:39;;;;;;;6.97;5.28;;;;;;;;;;4678616;30;20106;-80
2021/07/23 06:39:05;;;;;;;8.73;6.20;;;;;;;;;;4678258;30;20066;-80
2021/07/23 06:41:30;;;;;;;7.43;5.45;;;;;;;;;;4676324;30;20038;-80
2021/07/23 06:43:56;;;;;;;6.93;5.05;;;;;;;;;;4668684;30;20095;-80
2021/07/23 06:46:21;;;;;;;7.03;4.88;;;;;;;;;;4673158;30;20446;-80
2021/07/23 06:48:46;;;;;;;6.38;4.90;;;;;;;;;;4689881;30;20080;-80
2021/07/23 06:51:13;;;;;;;6.53;4.78;;;;;;;;;;4676106;30;20038;-80
2021/07/23 06:53:39;;;;;;;8.38;5.20;;;;;;;;;;4670955;30;20034;-80
2021/07/23 06:56:05;;;;;;;9.38;6.22;;;;;;;;;;4678735;30;20044;-80
2021/07/23 06:58:31;;;;;;;7.93;5.15;;;;;;;;;;4677083;30;20484;-79
2021/07/23 07:01:03;;;;;;;6.07;4.55;;;;;;;;;;4680296;30;20050;-79
2021/07/23 07:03:28;;;;;;;7.13;5.67;;;;;;;;;;4677146;30;20045;-80
2021/07/23 07:05:54;;;;;;;6.32;5.20;;;;;;;;;;4680083;30;20038;-80
2021/07/23 07:08:19;;;;;;;8.75;5.43;;;;;;;;;;4668384;30;20038;-80
2021/07/23 07:10:45;;;;;;;8.50;4.78;;;;;;;;;;4669708;30;20038;-80
2021/07/23 07:13:10;;;;;;;7.65;4.75;;;;;;;;;;4669264;30;20048;-80
2021/07/23 07:15:35;;;;;;;7.38;5.00;;;;;;;;;;4671649;30;20041;-81
2021/07/23 07:18:02;;;;;;;6.63;4.70;;;;;;;;;;4688318;30;20042;-80
2021/07/23 07:20:32;;;;;;;9.50;5.35;;;;;;;;;;4693466;30;20121;-80
2021/07/23 07:22:57;;;;;;;7.63;4.85;;;;;;;;;;4690030;30;20057;-80
2021/07/23 07:25:24;;;;;;;9.70;5.65;;;;;;;;;;4674831;30;20089;-80
2021/07/23 07:27:49;;;;;;;9.05;5.60;;;;;;;;;;4684053;30;20136;-80
2021/07/23 07:30:15;;;;;;;7.72;5.63;;;;;;;;;;4674565;30;20074;-80
2021/07/23 07:32:41;;;;;;;9.73;6.38;;;;;;;;;;4680182;30;20049;-79
2021/07/23 07:35:07;;;;;;;9.13;6.05;;;;;;;;;;4696668;30;20037;-80
2021/07/23 07:37:32;;;;;;;8.68;5.25;;;;;;;;;;4672168;30;20054;-81
2021/07/23 07:39:58;;;;;;;9.05;5.80;;;;;;;;;;4670148;30;20124;-80
2021/07/23 07:42:24;;;;;;;8.05;5.60;;;;;;;;;;4695604;30;20041;-81
2021/07/23 07:44:50;;;;;;;10.57;5.15;;;;;;;;;;4682294;30;20049;-80
2021/07/23 07:47:16;;;;;;;8.32;5.28;;;;;;;;;;4675833;30;20550;-80
2021/07/23 07:49:41;;;;;;;9.10;5.30;;;;;;;;;;4681813;30;20483;-80
2021/07/23 07:52:07;;;;;;;8.05;5.85;;;;;;;;;;4700078;30;20037;-81
2021/07/23 07:54:33;;;;;;;8.60;5.10;;;;;;;;;;4667465;30;20105;-80
2021/07/23 07:57:08;;;;;;;6.78;4.93;;;;;;;;;;4698473;30;20044;-80
2021/07/23 07:59:34;;;;;;;8.93;5.43;;;;;;;;;;4699340;30;20034;-80
2021/07/23 08:01:59;;;;;;;6.63;4.15;;;;;;;;;;4693531;30;20192;-80
2021/07/23 08:04:25;;;;;;;6.80;4.60;;;;;;;;;;4698345;30;20033;-80
2021/07/23 08:06:51;;;;;;;6.82;4.35;;;;;;;;;;4663082;30;20124;-81
2021/07/23 08:09:16;;;;;;;6.25;4.55;;;;;;;;;;4682254;30;20127;-80
2021/07/23 08:11:42;;;;;;;9.77;5.15;;;;;;;;;;4678537;30;20041;-80
2021/07/23 08:14:08;;;;;;;5.30;4.13;;;;;;;;;;4671349;30;20049;-81
2021/07/23 08:16:34;;;;;;;6.97;4.75;;;;;;;;;;4696964;30;20494;-80
2021/07/23 08:19:01;;;;;;;7.47;4.40;;;;;;;;;;4690958;30;20029;-80
2021/07/23 08:21:28;;;;;;;8.38;4.95;;;;;;;;;;4689715;30;20045;-79
2021/07/23 08:23:54;;;;;;;6.65;4.80;;;;;;;;;;4689184;30;20075;-80
2021/07/23 08:26:19;;;;;;;6.85;4.05;;;;;;;;;;4674553;30;20118;-80
2021/07/23 08:28:45;;;;;;;6.55;4.40;;;;;;;;;;4691611;30;20046;-80
2021/07/23 08:31:10;;;;;;;7.43;4.05;;;;;;;;;;4676939;30;20065;-80
2021/07/23 08:33:36;;;;;;;6.22;4.22;;;;;;;;;;4683417;30;20129;-80
2021/07/23 08:36:05;;;;;;;7.43;4.20;;;;;;;;;;4670352;30;20038;-80
2021/07/23 08:38:30;;;;;;;6.43;4.28;;;;;;;;;;4690167;30;20056;-80
2021/07/23 08:40:55;;;;;;;5.65;3.53;;;;;;;;;;4681241;30;20037;-81
2021/07/23 08:43:21;;;;;;;9.98;4.30;;;;;;;;;;4678311;30;20070;-80
2021/07/23 08:45:47;;;;;;;5.95;3.90;;;;;;;;;;4683794;30;20049;-80
2021/07/23 08:48:12;;;;;;;5.90;4.20;;;;;;;;;;4690860;30;20030;-80
2021/07/23 08:50:38;;;;;;;6.88;4.10;;;;;;;;;;4685364;30;20052;-80
2021/07/23 08:53:09;;;;;;;8.30;4.28;;;;;;;;;;4700091;30;20446;-80
2021/07/23 08:55:35;;;;;;;7.03;4.30;;;;;;;;;;4672539;30;20082;-80
2021/07/23 08:58:00;;;;;;;6.65;4.20;;;;;;;;;;4694873;30;20038;-80
2021/07/23 09:00:26;;;;;;;6.25;4.30;;;;;;;;;;4702975;30;20034;-80
2021/07/23 09:02:57;;;;;;;7.38;4.28;;;;;;;;;;4708111;30;20048;-80
2021/07/23 09:05:27;;;;;;;7.15;4.30;;;;;;;;;;4684299;30;20045;-80
2021/07/23 09:07:54;;;;;;;6.40;4.60;;;;;;;;;;4685769;30;20037;-80
2021/07/23 09:10:27;;;;;;;5.55;3.60;;;;;;;;;;4673928;30;20068;-80
2021/07/23 09:12:55;;;;;;;6.15;4.10;;;;;;;;;;4694533;30;20041;-80
2021/07/23 09:15:23;;;;;;;6.20;4.07;;;;;;;;;;4706416;30;20054;-80
2021/07/23 09:17:49;;;;;;;6.78;4.18;;;;;;;;;;4695283;30;20101;-80
2021/07/23 09:20:15;;;;;;;6.65;4.53;;;;;;;;;;4701332;30;20043;-80
2021/07/23 09:22:52;;;;;;;6.93;4.47;;;;;;;;;;4698427;30;20110;-80
2021/07/23 09:25:41;;;;;;;7.25;4.50;;;;;;;;;;4690199;30;20108;-81
2021/07/23 09:28:21;;;;;;;7.85;4.38;;;;;;;;;;4687141;30;20041;-80
2021/07/23 09:30:46;;;;;;;6.97;4.30;;;;;;;;;;4708126;30;20383;-80
2021/07/23 09:33:12;;;;;;;6.97;4.05;;;;;;;;;;4687873;30;20068;-80
2021/07/23 09:35:52;;;;;;;5.63;4.10;;;;;;;;;;4685027;30;20554;-80
2021/07/23 09:38:19;;;;;;;6.13;4.30;;;;;;;;;;4680941;30;20038;-81
2021/07/23 09:40:45;;;;;;;6.72;4.60;;;;;;;;;;4680797;30;20514;-80
2021/07/23 09:43:11;;;;;;;8.95;4.28;;;;;;;;;;4684321;30;20042;-80
2021/07/23 09:45:37;;;;;;;6.75;4.30;;;;;;;;;;4679416;30;20057;-79
2021/07/23 09:48:13;;;;;;;5.78;4.25;;;;;;;;;;4688196;30;20389;-79
2021/07/23 09:50:45;;;;;;;6.22;4.40;;;;;;;;;;4686680;30;20049;-79
2021/07/23 09:53:21;;;;;;;7.22;4.50;;;;;;;;;;4677693;30;20041;-80
2021/07/23 09:55:48;;;;;;;6.50;4.55;;;;;;;;;;4686346;30;20046;-80
2021/07/23 09:58:20;;;;;;;5.90;3.88;;;;;;;;;;4687708;30;20038;-80
2021/07/23 10:00:52;;;;;;;6.38;4.40;;;;;;;;;;4703336;30;20041;-80
2021/07/23 10:03:20;;;;;;;7.90;4.60;;;;;;;;;;4683273;30;20041;-80
2021/07/23 10:06:09;;;;;;;5.68;4.03;;;;;;;;;;4684736;30;20048;-80
2021/07/23 10:08:38;;;;;;;6.03;3.97;;;;;;;;;;4699818;30;20080;-80
2021/07/23 10:11:07;;;;;;;6.65;3.85;;;;;;;;;;4692364;30;20038;-80
2021/07/23 10:13:38;;;;;;;5.63;4.13;;;;;;;;;;4682119;30;20034;-80
2021/07/23 10:16:08;;;;;;;6.20;4.28;;;;;;;;;;4691456;30;20037;-79
2021/07/23 10:18:37;;;;;;;5.28;3.88;;;;;;;;;;4704935;30;20060;-80
2021/07/23 10:21:03;;;;;;;6.65;4.20;;;;;;;;;;4679089;30;20859;-80
2021/07/23 10:23:30;;;;;;;6.38;4.10;;;;;;;;;;4686456;30;20116;-79
2021/07/23 10:25:56;;;;;;;7.20;3.92;;;;;;;;;;4685414;30;20030;-80
2021/07/23 10:28:40;;;;;;;6.00;3.60;;;;;;;;;;4704862;30;20030;-80
2021/07/23 10:31:18;;;;;;;6.45;3.95;;;;;;;;;;4702061;30;20041;-80
2021/07/23 10:33:50;;;;;;;7.72;4.18;;;;;;;;;;4689324;30;20048;-80
2021/07/23 10:36:31;;;;;;;7.03;4.43;;;;;;;;;;4706662;30;20128;-80
2021/07/23 10:39:06;;;;;;;5.45;3.90;;;;;;;;;;4689692;30;20057;-85
2021/07/23 10:41:38;;;;;;;7.18;4.22;;;;;;;;;;4680751;30;20124;-80
2021/07/23 10:44:26;;;;;;;8.48;4.00;;;;;;;;;;4681355;30;20511;-80
2021/07/23 10:46:52;;;;;;;7.60;4.15;;;;;;;;;;4674471;30;20526;-80
2021/07/23 10:49:28;;;;;;;13.73;4.35;;;;;;;;;;4694209;30;20046;-80
2021/07/23 10:52:00;;;;;;;5.85;4.15;;;;;;;;;;4695772;30;20060;-79
2021/07/23 10:54:29;;;;;;;6.20;4.38;;;;;;;;;;4671269;30;20038;-80
2021/07/23 10:56:58;;;;;;;6.22;4.10;;;;;;;;;;4683796;30;20491;-80
2021/07/23 10:59:39;;;;;;;7.45;4.70;;;;;;;;;;4680970;30;20044;-80
2021/07/23 11:02:25;;;;;;;6.32;4.13;;;;;;;;;;4697345;30;20033;-80
2021/07/23 11:04:51;;;;;;;6.43;4.05;;;;;;;;;;4703895;30;20661;-79
2021/07/23 11:07:23;;;;;;;6.43;3.92;;;;;;;;;;4683503;30;20128;-80
2021/07/23 11:09:49;;;;;;;7.40;4.20;;;;;;;;;;4684046;30;20504;-80
2021/07/23 11:12:19;;;;;;;6.93;4.72;;;;;;;;;;4685960;30;20045;-83
2021/07/23 11:14:55;;;;;;;6.70;4.30;;;;;;;;;;4699737;30;20507;-80
2021/07/23 11:17:21;;;;;;;6.05;4.00;;;;;;;;;;4694050;30;20049;-79
2021/07/23 11:19:49;;;;;;;5.88;3.97;;;;;;;;;;4688643;30;20088;-80
2021/07/23 11:22:25;;;;;;;5.78;3.95;;;;;;;;;;4687130;30;20061;-80
2021/07/23 11:24:55;;;;;;;5.45;3.85;;;;;;;;;;4701963;30;20059;-80
2021/07/23 11:27:32;;;;;;;5.43;3.90;;;;;;;;;;4684395;30;20029;-80
2021/07/23 11:29:58;;;;;;;5.10;3.65;;;;;;;;;;4682188;30;20038;-80
2021/07/23 11:32:26;;;;;;;5.97;3.75;;;;;;;;;;4675339;30;20073;-80
2021/07/23 11:35:06;;;;;;;6.05;3.92;;;;;;;;;;4701104;30;20430;-80
2021/07/23 11:37:31;;;;;;;5.50;3.90;;;;;;;;;;4690709;30;20395;-80
2021/07/23 11:40:03;;;;;;;6.68;3.97;;;;;;;;;;4674546;30;20136;-80
2021/07/23 11:42:36;;;;;;;7.25;4.18;;;;;;;;;;4686216;30;20037;-80
2021/07/23 11:45:02;;;;;;;5.28;3.60;;;;;;;;;;4697276;30;20421;-80
2021/07/23 11:47:36;;;;;;;7.13;3.50;;;;;;;;;;4697503;30;20045;-80
2021/07/23 11:50:11;;;;;;;5.95;4.00;;;;;;;;;;4676743;30;20057;-79
2021/07/23 11:52:37;;;;;;;5.50;3.90;;;;;;;;;;4670291;30;20042;-80
2021/07/23 11:55:05;;;;;;;5.32;3.45;;;;;;;;;;4679508;30;20564;-80
2021/07/23 11:57:34;;;;;;;5.90;3.80;;;;;;;;;;4677944;30;20037;-80
2021/07/23 12:00:00;;;;;;;5.53;3.70;;;;;;;;;;4680562;30;20133;-79
2021/07/23 12:02:29;;;;;;;5.38;3.47;;;;;;;;;;4681839;30;20097;-80
2021/07/23 12:05:11;;;;;;;6.45;3.90;;;;;;;;;;4695155;30;20037;-80
2021/07/23 12:07:38;;;;;;;5.85;3.83;;;;;;;;;;4689004;30;20232;-80
2021/07/23 12:10:09;;;;;;;5.85;3.60;;;;;;;;;;4668620;30;20037;-80
2021/07/23 12:12:35;;;;;;;6.28;3.80;;;;;;;;;;4689530;30;20037;-79
2021/07/23 12:15:07;;;;;;;5.97;3.83;;;;;;;;;;4665437;30;20488;-79
2021/07/23 12:17:35;;;;;;;7.22;4.03;;;;;;;;;;4690444;30;20037;-79
2021/07/23 12:20:01;;;;;;;6.88;4.30;;;;;;;;;;4696901;30;20045;-79
2021/07/23 12:22:27;;;;;;;5.78;3.80;;;;;;;;;;4694843;30;20062;-79
2021/07/23 12:24:52;;;;;;;6.25;4.15;;;;;;;;;;4681234;30;20503;-80
2021/07/23 12:27:22;;;;;;;6.78;4.03;;;;;;;;;;4673668;30;20369;-79
2021/07/23 12:29:47;;;;;;;5.93;4.10;;;;;;;;;;4678844;30;20065;-79
2021/07/23 12:32:24;;;;;;;6.10;3.63;;;;;;;;;;4674395;30;20049;-80
2021/07/23 12:35:00;;;;;;;5.90;4.18;;;;;;;;;;4702281;30;20065;-80
2021/07/23 12:37:27;;;;;;;8.60;4.32;;;;;;;;;;4679841;30;20044;-79
2021/07/23 12:39:57;;;;;;;6.10;4.15;;;;;;;;;;4700015;30;20045;-80
2021/07/23 12:42:24;;;;;;;5.38;3.65;;;;;;;;;;4675151;30;20041;-79
2021/07/23 12:44:50;;;;;;;6.72;4.47;;;;;;;;;;4696739;30;20053;-79
2021/07/23 12:47:19;;;;;;;7.28;3.90;;;;;;;;;;4693944;30;20399;-79
2021/07/23 12:49:46;;;;;;;9.25;4.22;;;;;;;;;;4678129;30;20115;-79
2021/07/23 12:52:12;;;;;;;8.40;4.65;;;;;;;;;;4672781;30;20410;-79
2021/07/23 12:54:49;;;;;;;5.90;3.85;;;;;;;;;;4688191;30;20025;-79
2021/07/23 12:57:32;;;;;;;5.93;3.78;;;;;;;;;;4687420;30;20048;-79
2021/07/23 13:00:17;;;;;;;6.13;4.10;;;;;;;;;;4690633;30;20037;-79
2021/07/23 13:02:43;;;;;;;5.70;4.15;;;;;;;;;;4696419;30;20045;-79
2021/07/23 13:05:09;;;;;;;5.95;4.40;;;;;;;;;;4673671;30;20041;-79
2021/07/23 13:07:35;;;;;;;6.88;4.47;;;;;;;;;;4674752;30;20076;-79
2021/07/23 13:10:02;;;;;;;7.90;4.65;;;;;;;;;;4673249;30;20747;-79
2021/07/23 13:12:28;;;;;;;5.97;3.83;;;;;;;;;;4690318;30;20076;-79
2021/07/23 13:14:53;;;;;;;7.53;4.15;;;;;;;;;;4680923;30;20067;-79
2021/07/23 13:17:19;;;;;;;6.07;3.92;;;;;;;;;;4678977;30;20148;-79
2021/07/23 13:19:44;;;;;;;7.00;4.20;;;;;;;;;;4666979;30;20056;-79
2021/07/23 13:22:10;;;;;;;7.25;4.32;;;;;;;;;;4695820;30;20491;-79
2021/07/23 13:24:35;;;;;;;5.65;3.97;;;;;;;;;;4674692;30;20050;-79
2021/07/23 13:27:01;;;;;;;6.70;3.95;;;;;;;;;;4693309;30;20053;-79
2021/07/23 13:29:26;;;;;;;7.18;4.50;;;;;;;;;;4678738;30;20066;-79
2021/07/23 13:31:53;;;;;;;7.60;4.53;;;;;;;;;;4679423;30;20037;-79
2021/07/23 13:34:20;;;;;;;7.72;4.63;;;;;;;;;;4672928;30;20030;-79
2021/07/23 13:36:52;;;;;;;7.18;4.25;;;;;;;;;;4664965;30;20045;-79
2021/07/23 13:39:40;;;;;;;7.10;4.18;;;;;;;;;;4679194;30;20651;-79
2021/07/23 13:42:09;;;;;;;6.93;4.70;;;;;;;;;;4674847;30;20076;-79
2021/07/23 13:44:34;;;;;;;6.18;4.63;;;;;;;;;;4677411;30;20101;-78
2021/07/23 13:47:03;;;;;;;5.82;4.10;;;;;;;;;;4692796;30;20067;-79
2021/07/23 13:49:28;;;;;;;5.93;3.88;;;;;;;;;;4674573;30;20048;-79
2021/07/23 13:51:53;;;;;;;7.20;4.88;;;;;;;;;;4668788;30;20045;-79
2021/07/23 13:54:19;;;;;;;7.53;4.55;;;;;;;;;;4673656;30;20090;-79
2021/07/23 13:56:44;;;;;;;7.18;4.10;;;;;;;;;;4680839;30;20128;-78
2021/07/23 13:59:11;;;;;;;6.82;4.32;;;;;;;;;;4679373;30;20049;-79
2021/07/23 14:01:36;;;;;;;5.65;3.67;;;;;;;;;;4668164;30;20048;-79
2021/07/23 14:04:02;;;;;;;7.47;4.20;;;;;;;;;;4672438;30;20038;-78
2021/07/23 14:06:27;;;;;;;7.15;4.60;;;;;;;;;;4689734;30;20419;-79
2021/07/23 14:08:56;;;;;;;6.35;4.07;;;;;;;;;;4678142;30;20073;-78
2021/07/23 14:11:22;;;;;;;10.23;5.40;;;;;;;;;;4667974;30;20041;-79
2021/07/23 14:13:49;;;;;;;6.18;4.10;;;;;;;;;;4688209;30;20037;-79
2021/07/23 14:16:14;;;;;;;6.25;4.05;;;;;;;;;;4666440;30;20044;-78
2021/07/23 14:18:40;;;;;;;6.07;4.18;;;;;;;;;;4663278;30;20041;-79
2021/07/23 14:21:06;;;;;;;8.77;4.35;;;;;;;;;;4679267;30;20049;-79
2021/07/23 14:23:31;;;;;;;6.05;4.20;;;;;;;;;;4672413;30;20064;-79
2021/07/23 14:25:58;;;;;;;7.03;4.60;;;;;;;;;;4663211;30;20050;-79
2021/07/23 14:28:23;;;;;;;6.00;4.50;;;;;;;;;;4690475;30;20053;-79
2021/07/23 14:30:49;;;;;;;6.72;4.45;;;;;;;;;;4694355;30;20097;-79
2021/07/23 14:33:15;;;;;;;9.40;5.18;;;;;;;;;;4677140;30;20124;-79
2021/07/23 14:35:40;;;;;;;7.00;4.22;;;;;;;;;;4666071;30;20060;-79
2021/07/23 14:38:06;;;;;;;8.00;4.90;;;;;;;;;;4665156;30;20034;-79
2021/07/23 14:40:32;;;;;;;6.38;4.43;;;;;;;;;;4673342;30;20108;-79
2021/07/23 14:42:57;;;;;;;7.18;4.43;;;;;;;;;;4672631;30;20034;-79